createdAt,value
2019-04-22T00:00:44.607Z,1015.95
2019-04-22T00:01:41.946Z,1015.93
2019-04-22T00:02:49.018Z,1015.96
2019-04-22T00:03:47.473Z,1016.00
2019-04-22T00:04:57.582Z,1016.00
2019-04-22T00:06:01.178Z,1015.93
2019-04-22T00:07:03.151Z,1015.95
2019-04-22T00:08:10.579Z,1015.98
2019-04-22T00:09:11.077Z,1016.00
2019-04-22T00:10:12.097Z,1015.99
2019-04-22T00:11:14.412Z,1016.02
2019-04-22T00:12:06.401Z,1016.01
2019-04-22T00:13:23.755Z,1015.96
2019-04-22T00:14:01.240Z,1016.00
2019-04-22T00:15:04.007Z,1015.99
2019-04-22T00:15:59.257Z,1015.91
2019-04-22T00:17:17.770Z,1015.97
2019-04-22T00:18:19.922Z,1015.90
2019-04-22T00:19:58.251Z,1015.98
2019-04-22T00:20:10.159Z,1016.00
2019-04-22T00:21:04.404Z,1015.91
2019-04-22T00:22:09.249Z,1015.94
2019-04-22T00:23:10.090Z,1015.96
2019-04-22T00:24:07.477Z,1015.94
2019-04-22T00:25:08.070Z,1016.03
2019-04-22T00:26:14.825Z,1015.99
2019-04-22T00:27:18.344Z,1016.00
2019-04-22T00:28:09.504Z,1016.00
2019-04-22T00:29:34.493Z,1015.99
2019-04-22T00:31:10.211Z,1016.03
2019-04-22T00:32:05.505Z,1015.98
2019-04-22T00:33:04.786Z,1016.00
2019-04-22T00:34:06.148Z,1016.03
2019-04-22T00:35:08.533Z,1016.00
2019-04-22T00:36:12.772Z,1016.02
2019-04-22T00:37:07.920Z,1016.07
2019-04-22T00:38:12.795Z,1016.01
2019-04-22T00:39:07.410Z,1015.98
2019-04-22T00:40:09.364Z,1015.99
2019-04-22T00:41:10.339Z,1016.01
2019-04-22T00:42:10.071Z,1015.96
2019-04-22T00:43:05.035Z,1016.02
2019-04-22T00:44:12.354Z,1016.02
2019-04-22T00:45:11.754Z,1016.06
2019-04-22T00:46:02.704Z,1016.00
2019-04-22T00:47:11.596Z,1016.05
2019-04-22T00:48:09.198Z,1016.00
2019-04-22T00:49:54.863Z,1016.01
2019-04-22T00:51:17.917Z,1015.99
2019-04-22T00:53:15.264Z,1015.99
2019-04-22T00:54:08.685Z,1015.95
2019-04-22T00:55:13.360Z,1016.03
2019-04-22T00:56:07.918Z,1015.98
2019-04-22T00:57:08.722Z,1015.95
2019-04-22T00:58:08.267Z,1015.96
2019-04-22T00:59:11.948Z,1015.94
2019-04-22T01:00:07.003Z,1015.98
2019-04-22T01:01:07.794Z,1015.96
2019-04-22T01:02:11.948Z,1016.01
2019-04-22T01:03:11.799Z,1016.02
2019-04-22T01:04:14.762Z,1016.00
2019-04-22T01:05:13.572Z,1016.02
2019-04-22T01:07:09.182Z,1016.02
2019-04-22T01:08:07.035Z,1016.03
2019-04-22T01:09:10.802Z,1016.11
2019-04-22T01:10:06.938Z,1016.04
2019-04-22T01:11:13.360Z,1016.06
2019-04-22T01:12:08.247Z,1016.08
2019-04-22T01:13:08.147Z,1016.03
2019-04-22T01:14:04.796Z,1016.00
2019-04-22T01:15:09.239Z,1016.03
2019-04-22T01:16:13.907Z,1016.06
2019-04-22T01:17:17.579Z,1016.02
2019-04-22T01:18:03.611Z,1016.01
2019-04-22T01:19:10.440Z,1016.03
2019-04-22T01:20:24.626Z,1015.99
2019-04-22T01:22:12.453Z,1016.06
2019-04-22T01:23:08.086Z,1015.99
2019-04-22T01:24:03.931Z,1016.00
2019-04-22T01:25:06.856Z,1015.98
2019-04-22T01:25:57.084Z,1016.06
2019-04-22T01:27:00.519Z,1015.99
2019-04-22T01:27:58.262Z,1016.01
2019-04-22T01:28:53.915Z,1015.97
2019-04-22T01:29:54.182Z,1016.05
2019-04-22T01:30:49.230Z,1015.92
2019-04-22T01:31:43.849Z,1015.94
2019-04-22T01:32:45.718Z,1015.92
2019-04-22T01:33:46.506Z,1015.92
2019-04-22T01:36:01.444Z,1015.94
2019-04-22T01:36:57.699Z,1015.91
2019-04-22T01:37:58.934Z,1015.90
2019-04-22T01:39:07.211Z,1015.86
2019-04-22T01:40:06.106Z,1015.95
2019-04-22T01:41:08.320Z,1015.90
2019-04-22T01:42:18.713Z,1015.91
2019-04-22T01:43:06.998Z,1015.88
2019-04-22T01:44:16.442Z,1015.91
2019-04-22T01:45:09.880Z,1015.90
2019-04-22T01:46:08.014Z,1015.88
2019-04-22T01:47:10.193Z,1015.87
2019-04-22T01:48:02.820Z,1015.91
2019-04-22T01:49:17.287Z,1015.92
2019-04-22T01:50:09.958Z,1015.85
2019-04-22T01:51:01.685Z,1015.84
2019-04-22T01:52:07.757Z,1015.88
2019-04-22T01:53:13.338Z,1015.93
2019-04-22T01:54:12.309Z,1015.92
2019-04-22T01:55:12.645Z,1015.98
2019-04-22T01:56:06.005Z,1015.92
2019-04-22T01:57:03.378Z,1015.94
2019-04-22T01:57:59.503Z,1015.94
2019-04-22T01:58:59.197Z,1015.91
2019-04-22T01:59:57.619Z,1015.87
2019-04-22T02:01:04.565Z,1015.84
2019-04-22T02:02:02.912Z,1015.86
2019-04-22T02:03:07.229Z,1015.89
2019-04-22T02:04:08.782Z,1015.84
2019-04-22T02:06:05.844Z,1015.80
2019-04-22T02:07:14.363Z,1015.81
2019-04-22T02:08:18.063Z,1015.78
2019-04-22T02:09:09.553Z,1015.79
2019-04-22T02:10:07.426Z,1015.85
2019-04-22T02:11:08.320Z,1015.77
2019-04-22T02:12:05.974Z,1015.77
2019-04-22T02:13:11.486Z,1015.78
2019-04-22T02:14:04.111Z,1015.79
2019-04-22T02:15:06.601Z,1015.79
2019-04-22T02:16:06.729Z,1015.78
2019-04-22T02:17:09.186Z,1015.80
2019-04-22T02:18:11.047Z,1015.81
2019-04-22T02:19:11.625Z,1015.85
2019-04-22T02:20:12.059Z,1015.81
2019-04-22T02:21:07.380Z,1015.83
2019-04-22T02:22:12.904Z,1015.80
2019-04-22T02:23:38.802Z,1015.81
2019-04-22T02:24:05.209Z,1015.81
2019-04-22T02:25:09.363Z,1015.77
2019-04-22T02:27:10.508Z,1015.77
2019-04-22T02:28:24.030Z,1015.70
2019-04-22T02:29:06.594Z,1015.79
2019-04-22T02:30:22.466Z,1015.70
2019-04-22T02:33:25.502Z,1015.74
2019-04-22T02:34:13.858Z,1015.71
2019-04-22T02:35:11.604Z,1015.70
2019-04-22T02:37:12.472Z,1015.75
2019-04-22T02:38:23.766Z,1015.71
2019-04-22T02:40:34.891Z,1015.73
2019-04-22T02:42:16.613Z,1015.71
2019-04-22T02:43:11.724Z,1015.73
2019-04-22T02:45:09.649Z,1015.70
2019-04-22T02:48:31.498Z,1015.64
2019-04-22T02:50:08.882Z,1015.70
2019-04-22T02:51:22.219Z,1015.67
2019-04-22T02:52:14.986Z,1015.67
2019-04-22T02:53:37.510Z,1015.66
2019-04-22T02:55:10.675Z,1015.75
2019-04-22T02:58:16.864Z,1015.74
2019-04-22T03:00:12.340Z,1015.75
2019-04-22T03:01:13.578Z,1015.70
2019-04-22T03:02:11.895Z,1015.68
2019-04-22T03:03:23.443Z,1015.64
2019-04-22T03:04:22.650Z,1015.67
2019-04-22T03:07:05.396Z,1015.67
2019-04-22T03:07:05.430Z,1015.64
2019-04-22T03:09:12.680Z,1015.65
2019-04-22T03:10:09.091Z,1015.66
2019-04-22T03:11:19.008Z,1015.70
2019-04-22T03:13:21.359Z,1015.66
2019-04-22T03:15:22.030Z,1015.63
2019-04-22T03:18:09.493Z,1015.73
2019-04-22T03:21:14.658Z,1015.63
2019-04-22T03:22:24.072Z,1015.69
2019-04-22T03:27:08.201Z,1015.71
2019-04-22T03:28:08.834Z,1015.74
2019-04-22T03:29:11.187Z,1015.68
2019-04-22T03:31:31.658Z,1015.72
2019-04-22T03:33:20.151Z,1015.73
2019-04-22T03:34:54.542Z,1015.72
2019-04-22T03:36:41.875Z,1015.72
2019-04-22T03:37:21.088Z,1015.74
2019-04-22T03:39:33.517Z,1015.71
2019-04-22T03:41:24.475Z,1015.80
2019-04-22T03:44:31.277Z,1015.79
2019-04-22T03:45:20.118Z,1015.81
2019-04-22T03:46:16.651Z,1015.79
2019-04-22T03:47:16.075Z,1015.84
2019-04-22T03:48:07.968Z,1015.82
2019-04-22T03:49:28.235Z,1015.87
2019-04-22T03:50:22.676Z,1015.82
2019-04-22T03:51:18.429Z,1015.80
2019-04-22T03:52:18.804Z,1015.82
2019-04-22T03:53:41.323Z,1015.78
2019-04-22T03:54:25.909Z,1015.81
2019-04-22T03:55:07.432Z,1015.83
2019-04-22T03:56:19.105Z,1015.83
2019-04-22T03:58:01.774Z,1015.82
2019-04-22T03:59:25.155Z,1015.80
2019-04-22T04:00:18.982Z,1015.80
2019-04-22T04:02:29.242Z,1015.79
2019-04-22T04:03:11.788Z,1015.91
2019-04-22T04:04:20.935Z,1015.82
2019-04-22T04:05:10.291Z,1015.87
2019-04-22T04:06:06.867Z,1015.91
2019-04-22T04:07:22.108Z,1015.85
2019-04-22T04:09:16.878Z,1015.88
2019-04-22T04:10:19.807Z,1015.89
2019-04-22T04:11:07.092Z,1015.93
2019-04-22T04:13:08.442Z,1015.94
2019-04-22T04:14:18.058Z,1015.99
2019-04-22T04:15:23.562Z,1016.00
2019-04-22T04:16:12.894Z,1016.03
2019-04-22T04:17:09.655Z,1015.93
2019-04-22T04:19:13.714Z,1016.01
2019-04-22T04:21:26.946Z,1016.04
2019-04-22T04:22:21.313Z,1016.02
2019-04-22T04:23:21.894Z,1015.99
2019-04-22T04:25:32.149Z,1016.05
2019-04-22T04:26:43.256Z,1016.03
2019-04-22T04:27:39.828Z,1016.04
2019-04-22T04:28:46.447Z,1016.03
2019-04-22T04:29:36.137Z,1016.03
2019-04-22T04:30:18.946Z,1016.02
2019-04-22T04:31:17.801Z,1016.03
2019-04-22T04:32:30.919Z,1016.07
2019-04-22T04:33:15.712Z,1016.13
2019-04-22T04:34:20.031Z,1016.14
2019-04-22T04:35:32.141Z,1016.05
2019-04-22T04:36:13.969Z,1016.11
2019-04-22T04:38:08.189Z,1016.14
2019-04-22T04:39:22.196Z,1016.14
2019-04-22T04:40:29.222Z,1016.13
2019-04-22T04:41:17.651Z,1016.18
2019-04-22T04:43:07.949Z,1016.20
2019-04-22T04:44:34.255Z,1016.20
2019-04-22T04:46:19.844Z,1016.23
2019-04-22T04:47:25.742Z,1016.27
2019-04-22T04:48:15.008Z,1016.22
2019-04-22T04:51:18.033Z,1016.16
2019-04-22T04:52:20.947Z,1016.26
2019-04-22T04:53:14.538Z,1016.24
2019-04-22T04:56:30.447Z,1016.21
2019-04-22T04:57:17.402Z,1016.19
2019-04-22T05:02:24.245Z,1016.17
2019-04-22T05:03:16.688Z,1016.30
2019-04-22T05:05:12.081Z,1016.29
2019-04-22T05:06:12.887Z,1016.22
2019-04-22T05:08:12.774Z,1016.18
2019-04-22T05:09:15.164Z,1016.22
2019-04-22T05:10:30.988Z,1016.20
2019-04-22T05:12:27.530Z,1016.20
2019-04-22T05:13:10.406Z,1016.28
2019-04-22T05:15:15.329Z,1016.24
2019-04-22T05:17:16.486Z,1016.25
2019-04-22T05:18:18.985Z,1016.27
2019-04-22T05:19:07.530Z,1016.29
2019-04-22T05:20:12.824Z,1016.30
2019-04-22T05:22:06.068Z,1016.27
2019-04-22T05:23:09.238Z,1016.32
2019-04-22T05:24:09.541Z,1016.30
2019-04-22T05:26:04.284Z,1016.32
2019-04-22T05:27:14.913Z,1016.29
2019-04-22T05:28:09.020Z,1016.33
2019-04-22T05:29:08.482Z,1016.27
2019-04-22T05:31:08.699Z,1016.34
2019-04-22T05:32:03.080Z,1016.39
2019-04-22T05:33:07.370Z,1016.36
2019-04-22T05:34:04.317Z,1016.39
2019-04-22T05:35:09.916Z,1016.41
2019-04-22T05:36:07.607Z,1016.34
2019-04-22T05:37:13.129Z,1016.42
2019-04-22T05:38:11.184Z,1016.33
2019-04-22T05:39:06.285Z,1016.40
2019-04-22T05:40:14.006Z,1016.44
2019-04-22T05:41:03.146Z,1016.39
2019-04-22T05:42:03.650Z,1016.42
2019-04-22T05:43:01.950Z,1016.40
2019-04-22T05:44:04.978Z,1016.46
2019-04-22T05:45:05.499Z,1016.40
2019-04-22T05:46:02.923Z,1016.39
2019-04-22T05:47:04.378Z,1016.35
2019-04-22T05:48:02.831Z,1016.35
2019-04-22T05:49:09.951Z,1016.36
2019-04-22T05:50:02.277Z,1016.42
2019-04-22T05:51:01.993Z,1016.37
2019-04-22T05:52:04.716Z,1016.36
2019-04-22T05:53:03.279Z,1016.39
2019-04-22T05:53:59.538Z,1016.38
2019-04-22T05:56:09.922Z,1016.33
2019-04-22T05:57:06.575Z,1016.36
2019-04-22T05:58:02.723Z,1016.36
2019-04-22T05:59:03.841Z,1016.36
2019-04-22T06:00:06.639Z,1016.32
2019-04-22T06:01:36.675Z,1016.33
2019-04-22T06:02:05.070Z,1016.29
2019-04-22T06:03:09.991Z,1016.32
2019-04-22T06:04:05.452Z,1016.34
2019-04-22T06:05:11.930Z,1016.35
2019-04-22T06:06:00.824Z,1016.32
2019-04-22T06:07:01.057Z,1016.34
2019-04-22T06:07:56.786Z,1016.28
2019-04-22T06:09:07.463Z,1016.28
2019-04-22T06:10:04.251Z,1016.29
2019-04-22T06:11:10.130Z,1016.34
2019-04-22T06:11:59.113Z,1016.25
2019-04-22T06:12:59.219Z,1016.26
2019-04-22T06:13:57.626Z,1016.29
2019-04-22T06:16:02.125Z,1016.28
2019-04-22T06:17:03.900Z,1016.29
2019-04-22T06:18:09.390Z,1016.34
2019-04-22T06:19:09.599Z,1016.32
2019-04-22T06:20:07.683Z,1016.35
2019-04-22T06:21:05.236Z,1016.29
2019-04-22T06:22:10.766Z,1016.33
2019-04-22T06:23:04.488Z,1016.30
2019-04-22T06:25:01.201Z,1016.38
2019-04-22T06:27:10.265Z,1016.33
2019-04-22T06:28:03.398Z,1016.40
2019-04-22T06:29:07.360Z,1016.42
2019-04-22T06:30:06.066Z,1016.38
2019-04-22T06:32:23.069Z,1016.36
2019-04-22T06:33:00.846Z,1016.38
2019-04-22T06:35:11.353Z,1016.39
2019-04-22T06:36:03.421Z,1016.41
2019-04-22T06:37:16.082Z,1016.37
2019-04-22T06:38:25.618Z,1016.38
2019-04-22T06:39:13.307Z,1016.35
2019-04-22T06:40:07.330Z,1016.39
2019-04-22T06:41:09.338Z,1016.37
2019-04-22T06:43:05.636Z,1016.35
2019-04-22T06:44:09.343Z,1016.37
2019-04-22T06:45:04.240Z,1016.34
2019-04-22T06:46:02.486Z,1016.37
2019-04-22T06:47:06.571Z,1016.29
2019-04-22T06:48:09.821Z,1016.34
2019-04-22T06:49:03.026Z,1016.30
2019-04-22T06:50:03.889Z,1016.34
2019-04-22T06:51:00.182Z,1016.26
2019-04-22T06:52:08.050Z,1016.28
2019-04-22T06:53:05.805Z,1016.24
2019-04-22T06:54:02.894Z,1016.25
2019-04-22T06:55:59.728Z,1016.29
2019-04-22T06:57:01.596Z,1016.26
2019-04-22T06:58:57.799Z,1016.31
2019-04-22T07:00:05.279Z,1016.27
2019-04-22T07:01:04.185Z,1016.21
2019-04-22T07:02:04.825Z,1016.25
2019-04-22T07:04:01.528Z,1016.22
2019-04-22T07:05:00.959Z,1016.22
2019-04-22T07:06:08.063Z,1016.20
2019-04-22T07:08:04.125Z,1016.23
2019-04-22T07:10:06.613Z,1016.26
2019-04-22T07:10:58.240Z,1016.22
2019-04-22T07:12:05.969Z,1016.22
2019-04-22T07:13:00.924Z,1016.25
2019-04-22T07:14:04.246Z,1016.25
2019-04-22T07:15:08.508Z,1016.29
2019-04-22T07:16:03.977Z,1016.27
2019-04-22T07:17:05.178Z,1016.28
2019-04-22T07:18:04.085Z,1016.31
2019-04-22T07:19:01.864Z,1016.34
2019-04-22T07:20:02.123Z,1016.31
2019-04-22T07:21:01.250Z,1016.34
2019-04-22T07:22:09.717Z,1016.38
2019-04-22T07:23:02.561Z,1016.38
2019-04-22T07:24:22.832Z,1016.40
2019-04-22T07:27:08.888Z,1016.34
2019-04-22T07:27:58.600Z,1016.33
2019-04-22T07:29:04.092Z,1016.34
2019-04-22T07:30:09.548Z,1016.35
2019-04-22T07:31:05.045Z,1016.33
2019-04-22T07:32:00.245Z,1016.36
2019-04-22T07:34:08.155Z,1016.31
2019-04-22T07:35:22.855Z,1016.34
2019-04-22T07:36:25.696Z,1016.26
2019-04-22T07:37:15.329Z,1016.27
2019-04-22T07:38:05.858Z,1016.28
2019-04-22T07:39:05.794Z,1016.28
2019-04-22T07:39:56.800Z,1016.30
2019-04-22T07:41:05.329Z,1016.27
2019-04-22T07:41:56.038Z,1016.32
2019-04-22T07:43:09.522Z,1016.37
2019-04-22T07:44:22.083Z,1016.30
2019-04-22T07:45:08.477Z,1016.32
2019-04-22T07:46:00.073Z,1016.35
2019-04-22T07:47:04.801Z,1016.34
2019-04-22T07:48:13.027Z,1016.29
2019-04-22T07:49:06.659Z,1016.28
2019-04-22T07:50:09.598Z,1016.34
2019-04-22T07:51:05.545Z,1016.31
2019-04-22T07:52:03.619Z,1016.33
2019-04-22T07:52:57.046Z,1016.35
2019-04-22T07:54:03.371Z,1016.38
2019-04-22T07:55:02.379Z,1016.31
2019-04-22T07:56:01.317Z,1016.35
2019-04-22T07:57:08.921Z,1016.38
2019-04-22T07:58:01.173Z,1016.41
2019-04-22T07:59:07.589Z,1016.35
2019-04-22T08:00:02.932Z,1016.32
2019-04-22T08:01:04.100Z,1016.32
2019-04-22T08:02:04.469Z,1016.31
2019-04-22T08:03:06.206Z,1016.37
2019-04-22T08:04:24.323Z,1016.26
2019-04-22T08:07:03.844Z,1016.35
2019-04-22T08:08:10.983Z,1016.36
2019-04-22T08:09:11.313Z,1016.39
2019-04-22T08:10:09.175Z,1016.28
2019-04-22T08:11:18.899Z,1016.31
2019-04-22T08:11:59.308Z,1016.34
2019-04-22T08:13:05.663Z,1016.29
2019-04-22T08:13:58.974Z,1016.31
2019-04-22T08:15:00.065Z,1016.28
2019-04-22T08:16:04.808Z,1016.32
2019-04-22T08:17:14.473Z,1016.34
2019-04-22T08:18:04.609Z,1016.33
2019-04-22T08:19:03.072Z,1016.25
2019-04-22T08:20:02.828Z,1016.23
2019-04-22T08:20:58.914Z,1016.23
2019-04-22T08:22:02.357Z,1016.20
2019-04-22T08:23:04.797Z,1016.17
2019-04-22T08:24:01.237Z,1016.23
2019-04-22T08:25:01.922Z,1016.22
2019-04-22T08:26:05.372Z,1016.20
2019-04-22T08:26:59.349Z,1016.25
2019-04-22T08:28:08.350Z,1016.23
2019-04-22T08:29:12.388Z,1016.26
2019-04-22T08:31:04.803Z,1016.22
2019-04-22T08:31:59.142Z,1016.22
2019-04-22T08:33:05.049Z,1016.26
2019-04-22T08:34:01.748Z,1016.24
2019-04-22T08:35:04.899Z,1016.20
2019-04-22T08:37:57.577Z,1016.26
2019-04-22T08:39:01.954Z,1016.24
2019-04-22T08:40:09.627Z,1016.24
2019-04-22T08:41:08.665Z,1016.19
2019-04-22T08:41:57.231Z,1016.27
2019-04-22T08:43:08.770Z,1016.20
2019-04-22T08:44:02.324Z,1016.26
2019-04-22T08:46:06.423Z,1016.30
2019-04-22T08:48:04.481Z,1016.33
2019-04-22T08:48:59.042Z,1016.30
2019-04-22T08:50:16.388Z,1016.34
2019-04-22T08:51:00.618Z,1016.28
2019-04-22T08:52:06.903Z,1016.28
2019-04-22T08:53:01.964Z,1016.26
2019-04-22T08:55:08.134Z,1016.28
2019-04-22T08:56:07.738Z,1016.31
2019-04-22T08:57:06.643Z,1016.24
2019-04-22T08:58:16.805Z,1016.33
2019-04-22T08:59:12.328Z,1016.24
2019-04-22T09:00:02.545Z,1016.25
2019-04-22T09:01:04.455Z,1016.20
2019-04-22T09:01:49.181Z,1016.26
2019-04-22T09:04:02.377Z,1016.26
2019-04-22T09:05:10.670Z,1016.25
2019-04-22T09:06:08.500Z,1016.30
2019-04-22T09:08:07.743Z,1016.24
2019-04-22T09:09:04.223Z,1016.20
2019-04-22T09:10:05.156Z,1016.31
2019-04-22T09:11:04.635Z,1016.20
2019-04-22T09:12:01.344Z,1016.16
2019-04-22T09:13:03.651Z,1016.20
2019-04-22T09:14:08.902Z,1016.19
2019-04-22T09:15:01.075Z,1016.17
2019-04-22T09:16:03.624Z,1016.12
2019-04-22T09:17:10.401Z,1016.12
2019-04-22T09:18:06.798Z,1016.12
2019-04-22T09:18:59.780Z,1016.21
2019-04-22T09:20:00.399Z,1016.19
2019-04-22T09:21:08.901Z,1016.23
2019-04-22T09:22:00.579Z,1016.20
2019-04-22T09:23:03.713Z,1016.18
2019-04-22T09:24:05.010Z,1016.21
2019-04-22T09:24:58.586Z,1016.16
2019-04-22T09:26:05.027Z,1016.16
2019-04-22T09:27:03.978Z,1016.17
2019-04-22T09:27:55.627Z,1016.19
2019-04-22T09:29:05.178Z,1016.17
2019-04-22T09:30:01.133Z,1016.17
2019-04-22T09:31:01.723Z,1016.16
2019-04-22T09:32:06.862Z,1016.17
2019-04-22T09:33:02.893Z,1016.23
2019-04-22T09:34:00.462Z,1016.14
2019-04-22T09:34:59.013Z,1016.14
2019-04-22T09:36:08.922Z,1016.14
2019-04-22T09:37:06.040Z,1016.17
2019-04-22T09:38:11.798Z,1016.14
2019-04-22T09:39:00.855Z,1016.10
2019-04-22T09:40:04.506Z,1016.10
2019-04-22T09:40:59.872Z,1016.12
2019-04-22T09:41:59.248Z,1016.13
2019-04-22T09:43:17.180Z,1016.15
2019-04-22T09:45:01.057Z,1016.14
2019-04-22T09:46:01.438Z,1016.16
2019-04-22T09:47:00.418Z,1016.16
2019-04-22T09:48:03.093Z,1016.19
2019-04-22T09:50:01.526Z,1016.09
2019-04-22T09:50:59.708Z,1016.09
2019-04-22T09:51:58.182Z,1016.07
2019-04-22T09:53:02.079Z,1016.08
2019-04-22T09:54:07.303Z,1016.05
2019-04-22T09:55:06.109Z,1016.05
2019-04-22T09:56:03.472Z,1016.06
2019-04-22T09:57:02.173Z,1016.13
2019-04-22T09:57:58.826Z,1016.09
2019-04-22T09:59:13.829Z,1016.10
2019-04-22T10:00:02.290Z,1016.13
2019-04-22T10:01:03.323Z,1016.07
2019-04-22T10:02:16.026Z,1016.06
2019-04-22T10:03:00.924Z,1016.05
2019-04-22T10:04:05.396Z,1016.04
2019-04-22T10:05:03.524Z,1015.99
2019-04-22T10:06:13.277Z,1016.01
2019-04-22T10:06:54.640Z,1016.00
2019-04-22T10:07:59.461Z,1015.97
2019-04-22T10:09:25.953Z,1015.98
2019-04-22T10:10:09.457Z,1015.92
2019-04-22T10:11:08.671Z,1015.93
2019-04-22T10:11:56.342Z,1015.89
2019-04-22T10:13:03.494Z,1015.94
2019-04-22T10:13:59.764Z,1015.94
2019-04-22T10:15:13.858Z,1015.98
2019-04-22T10:16:07.658Z,1015.95
2019-04-22T10:17:00.056Z,1015.93
2019-04-22T10:17:56.449Z,1015.93
2019-04-22T10:20:01.092Z,1015.90
2019-04-22T10:21:08.438Z,1015.99
2019-04-22T10:21:57.319Z,1015.97
2019-04-22T10:22:57.714Z,1015.94
2019-04-22T10:24:09.265Z,1015.95
2019-04-22T10:24:59.049Z,1015.91
2019-04-22T10:25:58.828Z,1015.90
2019-04-22T10:26:56.805Z,1015.93
2019-04-22T10:28:04.916Z,1015.91
2019-04-22T10:30:00.064Z,1015.90
2019-04-22T10:30:52.137Z,1015.95
2019-04-22T10:32:00.860Z,1015.94
2019-04-22T10:32:58.905Z,1015.94
2019-04-22T10:33:49.538Z,1015.88
2019-04-22T10:34:40.875Z,1015.91
2019-04-22T10:35:34.563Z,1015.90
2019-04-22T10:36:33.280Z,1015.84
2019-04-22T10:37:34.292Z,1015.88
2019-04-22T10:38:34.501Z,1015.85
2019-04-22T10:39:42.283Z,1015.87
2019-04-22T10:40:34.619Z,1015.88
2019-04-22T10:41:34.613Z,1015.89
2019-04-22T10:42:33.588Z,1015.87
2019-04-22T10:43:33.210Z,1015.81
2019-04-22T10:44:33.342Z,1015.80
2019-04-22T10:45:34.484Z,1015.87
2019-04-22T10:46:33.979Z,1015.84
2019-04-22T10:47:34.171Z,1015.83
2019-04-22T10:48:34.415Z,1015.79
2019-04-22T10:49:34.088Z,1015.80
2019-04-22T10:50:35.694Z,1015.77
2019-04-22T10:51:33.107Z,1015.78
2019-04-22T10:52:39.412Z,1015.89
2019-04-22T10:53:33.461Z,1015.78
2019-04-22T10:54:33.695Z,1015.81
2019-04-22T10:55:33.059Z,1015.71
2019-04-22T10:56:33.053Z,1015.74
2019-04-22T10:57:33.878Z,1015.77
2019-04-22T10:58:33.035Z,1015.71
2019-04-22T10:59:34.282Z,1015.73
2019-04-22T11:00:33.611Z,1015.72
2019-04-22T11:01:33.854Z,1015.70
2019-04-22T11:02:32.993Z,1015.70
2019-04-22T11:03:33.265Z,1015.63
2019-04-22T11:04:34.282Z,1015.64
2019-04-22T11:05:34.089Z,1015.67
2019-04-22T11:06:33.666Z,1015.68
2019-04-22T11:07:42.387Z,1015.71
2019-04-22T11:08:41.422Z,1015.72
2019-04-22T11:09:45.896Z,1015.69
2019-04-22T11:10:47.443Z,1015.72
2019-04-22T11:11:46.078Z,1015.73
2019-04-22T11:12:35.467Z,1015.71
2019-04-22T11:13:33.756Z,1015.74
2019-04-22T11:14:32.953Z,1015.73
2019-04-22T11:15:32.943Z,1015.67
2019-04-22T11:16:32.827Z,1015.70
2019-04-22T11:17:33.541Z,1015.67
2019-04-22T11:18:33.728Z,1015.63
2019-04-22T11:19:32.825Z,1015.65
2019-04-22T11:20:33.717Z,1015.62
2019-04-22T11:21:33.775Z,1015.68
2019-04-22T11:22:36.591Z,1015.66
2019-04-22T11:23:32.747Z,1015.60
2019-04-22T11:24:41.156Z,1015.63
2019-04-22T11:25:33.943Z,1015.66
2019-04-22T11:26:32.706Z,1015.60
2019-04-22T11:27:32.953Z,1015.67
2019-04-22T11:28:33.875Z,1015.55
2019-04-22T11:29:32.676Z,1015.60
2019-04-22T11:30:32.992Z,1015.60
2019-04-22T11:31:32.649Z,1015.60
2019-04-22T11:32:32.803Z,1015.53
2019-04-22T11:33:32.634Z,1015.62
2019-04-22T11:34:33.381Z,1015.60
2019-04-22T11:35:33.977Z,1015.54
2019-04-22T11:36:32.665Z,1015.58
2019-04-22T11:37:32.784Z,1015.55
2019-04-22T11:38:33.014Z,1015.53
2019-04-22T11:39:36.250Z,1015.54
2019-04-22T11:40:38.396Z,1015.68
2019-04-22T11:41:33.876Z,1015.54
2019-04-22T11:42:32.525Z,1015.50
2019-04-22T11:43:32.513Z,1015.53
2019-04-22T11:44:33.004Z,1015.51
2019-04-22T11:45:33.244Z,1015.50
2019-04-22T11:46:33.586Z,1015.48
2019-04-22T11:47:33.079Z,1015.46
2019-04-22T11:48:33.875Z,1015.46
2019-04-22T11:49:32.449Z,1015.55
2019-04-22T11:50:33.573Z,1015.39
2019-04-22T11:51:33.769Z,1015.42
2019-04-22T11:52:33.087Z,1015.50
2019-04-22T11:53:32.407Z,1015.35
2019-04-22T11:54:32.662Z,1015.47
2019-04-22T11:55:32.880Z,1015.33
2019-04-22T11:56:38.927Z,1015.38
2019-04-22T11:57:32.944Z,1015.44
2019-04-22T11:58:33.152Z,1015.40
2019-04-22T11:59:33.037Z,1015.38
2019-04-22T12:00:32.778Z,1015.34
2019-04-22T12:01:32.991Z,1015.39
2019-04-22T12:02:33.133Z,1015.39
2019-04-22T12:03:33.570Z,1015.40
2019-04-22T12:04:32.279Z,1015.32
2019-04-22T12:05:32.302Z,1015.29
2019-04-22T12:06:33.630Z,1015.36
2019-04-22T12:07:34.797Z,1015.37
2019-04-22T12:08:32.235Z,1015.38
2019-04-22T12:09:33.387Z,1015.35
2019-04-22T12:10:38.826Z,1015.38
2019-04-22T12:11:34.503Z,1015.31
2019-04-22T12:12:32.187Z,1015.28
2019-04-22T12:13:33.696Z,1015.32
2019-04-22T12:14:32.166Z,1015.40
2019-04-22T12:15:32.971Z,1015.35
2019-04-22T12:16:32.141Z,1015.36
2019-04-22T12:17:32.133Z,1015.36
2019-04-22T12:18:33.322Z,1015.30
2019-04-22T12:19:33.685Z,1015.28
2019-04-22T12:20:32.999Z,1015.27
2019-04-22T12:21:33.039Z,1015.26
2019-04-22T12:22:32.069Z,1015.28
2019-04-22T12:23:32.738Z,1015.27
2019-04-22T12:24:32.085Z,1015.31
2019-04-22T12:25:42.409Z,1015.30
2019-04-22T12:26:34.447Z,1015.30
2019-04-22T12:27:32.645Z,1015.36
2019-04-22T12:28:39.256Z,1015.33
2019-04-22T12:29:33.195Z,1015.34
2019-04-22T12:30:33.263Z,1015.33
2019-04-22T12:31:33.464Z,1015.33
2019-04-22T12:32:31.955Z,1015.38
2019-04-22T12:33:31.950Z,1015.32
2019-04-22T12:34:33.254Z,1015.40
2019-04-22T12:35:32.728Z,1015.41
2019-04-22T12:36:32.762Z,1015.39
2019-04-22T12:37:43.017Z,1015.34
2019-04-22T12:38:33.466Z,1015.34
2019-04-22T12:39:31.894Z,1015.36
2019-04-22T12:40:41.170Z,1015.42
2019-04-22T12:41:33.869Z,1015.46
2019-04-22T12:42:33.215Z,1015.42
2019-04-22T12:43:33.350Z,1015.41
2019-04-22T12:44:32.803Z,1015.41
2019-04-22T12:45:32.032Z,1015.39
2019-04-22T12:46:32.332Z,1015.42
2019-04-22T12:47:33.545Z,1015.44
2019-04-22T12:48:32.881Z,1015.35
2019-04-22T12:49:32.206Z,1015.40
2019-04-22T12:50:35.733Z,1015.42
2019-04-22T12:51:33.272Z,1015.34
2019-04-22T12:52:39.716Z,1015.35
2019-04-22T12:53:33.935Z,1015.40
2019-04-22T12:54:33.055Z,1015.35
2019-04-22T12:55:32.374Z,1015.37
2019-04-22T12:56:31.687Z,1015.42
2019-04-22T12:57:32.659Z,1015.40
2019-04-22T12:58:31.799Z,1015.39
2019-04-22T12:59:31.926Z,1015.36
2019-04-22T13:00:38.736Z,1015.39
2019-04-22T13:01:33.005Z,1015.31
2019-04-22T13:02:31.623Z,1015.33
2019-04-22T13:03:31.986Z,1015.43
2019-04-22T13:04:32.284Z,1015.39
2019-04-22T13:05:33.295Z,1015.44
2019-04-22T13:06:32.082Z,1015.38
2019-04-22T13:07:31.591Z,1015.42
2019-04-22T13:08:31.794Z,1015.38
2019-04-22T13:09:31.673Z,1015.43
2019-04-22T13:10:42.999Z,1015.37
2019-04-22T13:11:36.361Z,1015.41
2019-04-22T13:12:32.943Z,1015.44
2019-04-22T13:13:31.498Z,1015.38
2019-04-22T13:14:32.772Z,1015.35
2019-04-22T13:15:32.894Z,1015.31
2019-04-22T13:16:31.462Z,1015.39
2019-04-22T13:17:32.881Z,1015.45
2019-04-22T13:18:39.476Z,1015.38
2019-04-22T13:19:33.867Z,1015.38
2019-04-22T13:20:32.368Z,1015.39
2019-04-22T13:21:32.899Z,1015.41
2019-04-22T13:22:32.556Z,1015.46
2019-04-22T13:23:31.794Z,1015.41
2019-04-22T13:24:32.006Z,1015.45
2019-04-22T13:25:32.432Z,1015.35
2019-04-22T13:26:31.970Z,1015.35
2019-04-22T13:27:33.023Z,1015.38
2019-04-22T13:28:31.521Z,1015.41
2019-04-22T13:29:32.927Z,1015.34
2019-04-22T13:30:32.575Z,1015.37
2019-04-22T13:31:32.859Z,1015.38
2019-04-22T13:32:38.827Z,1015.34
2019-04-22T13:33:32.718Z,1015.34
2019-04-22T13:34:39.592Z,1015.35
2019-04-22T13:35:32.240Z,1015.32
2019-04-22T13:36:31.791Z,1015.37
2019-04-22T13:37:32.718Z,1015.34
2019-04-22T13:38:31.246Z,1015.37
2019-04-22T13:39:31.428Z,1015.30
2019-04-22T13:40:31.187Z,1015.28